Time;durP1;ratioP1;P1;durP2;ratioP2;P2;SDS_P1;SDS_P2;PMS_P1;PMS_P2;Temp;Humidity;BMP_temperature;BMP_pressure;BME280_temperature;BME280_humidity;BME280_pressure;Samples;Min_cycle;Max_cycle;Signal;HPM_P1;HPM_P2
2022/06/30 00:00:51;;;;;;;3.03;2.83;;;;;;;;;;1611601;30;21645;-67
2022/06/30 00:01:44;;;;;;;3.08;2.40;;;;;;;;;;1611955;30;21656;-67
2022/06/30 00:02:36;;;;;;;2.88;2.10;;;;;;;;;;1610747;30;21890;-67
2022/06/30 00:03:27;;;;;;;2.83;2.67;;;;;;;;;;1608657;30;21639;-66
2022/06/30 00:04:20;;;;;;;4.80;3.92;;;;;;;;;;1607700;30;21782;-67
2022/06/30 00:05:11;;;;;;;2.83;2.63;;;;;;;;;;1608503;30;21759;-67
2022/06/30 00:06:03;;;;;;;3.53;3.22;;;;;;;;;;1606992;30;21752;-66
2022/06/30 00:06:54;;;;;;;2.85;2.65;;;;;;;;;;1607779;30;21627;-68
2022/06/30 00:07:47;;;;;;;2.85;2.63;;;;;;;;;;1612717;30;21632;-66
2022/06/30 00:08:38;;;;;;;3.22;3.03;;;;;;;;;;1609734;30;21619;-67
2022/06/30 00:09:31;;;;;;;3.53;2.85;;;;;;;;;;1610067;30;22256;-66
2022/06/30 00:10:23;;;;;;;5.03;2.70;;;;;;;;;;1611603;30;22711;-67
2022/06/30 00:11:15;;;;;;;2.78;2.58;;;;;;;;;;1609957;30;22492;-65
2022/06/30 00:12:07;;;;;;;2.75;2.58;;;;;;;;;;1609750;30;21634;-67
2022/06/30 00:12:59;;;;;;;3.17;2.97;;;;;;;;;;1611879;30;21709;-66
2022/06/30 00:13:51;;;;;;;3.20;2.90;;;;;;;;;;1610367;30;21714;-66
2022/06/30 00:14:43;;;;;;;2.97;2.20;;;;;;;;;;1608778;30;22372;-67
2022/06/30 00:15:37;;;;;;;3.50;2.20;;;;;;;;;;1612864;30;21628;-66
2022/06/30 00:16:29;;;;;;;2.25;2.15;;;;;;;;;;1611742;30;22549;-67
2022/06/30 00:17:20;;;;;;;2.90;2.70;;;;;;;;;;1609349;30;21803;-66
2022/06/30 00:18:12;;;;;;;2.88;2.67;;;;;;;;;;1606151;30;21748;-67
2022/06/30 00:19:04;;;;;;;2.72;2.53;;;;;;;;;;1605090;30;21643;-65
2022/06/30 00:19:56;;;;;;;2.53;2.33;;;;;;;;;;1607205;30;21714;-67
2022/06/30 00:20:47;;;;;;;4.10;2.40;;;;;;;;;;1614033;30;22482;-66
2022/06/30 00:21:40;;;;;;;2.53;2.33;;;;;;;;;;1611936;30;22782;-64
2022/06/30 00:22:31;;;;;;;2.60;2.33;;;;;;;;;;1609371;30;22031;-65
2022/06/30 00:23:23;;;;;;;2.25;2.15;;;;;;;;;;1614680;30;22769;-65
2022/06/30 00:24:14;;;;;;;2.55;2.40;;;;;;;;;;1607740;30;21909;-65
2022/06/30 00:25:09;;;;;;;2.55;2.35;;;;;;;;;;1609786;30;22460;-66
2022/06/30 00:26:00;;;;;;;2.30;2.20;;;;;;;;;;1613174;30;22314;-66
2022/06/30 00:26:53;;;;;;;2.53;2.33;;;;;;;;;;1612197;30;22111;-66
2022/06/30 00:27:44;;;;;;;2.60;2.40;;;;;;;;;;1610779;30;21642;-66
2022/06/30 00:28:36;;;;;;;2.22;2.13;;;;;;;;;;1607729;30;21944;-66
2022/06/30 00:29:27;;;;;;;2.55;2.35;;;;;;;;;;1608772;30;21625;-66
2022/06/30 00:30:20;;;;;;;3.00;2.60;;;;;;;;;;1610015;30;21625;-67
2022/06/30 00:31:11;;;;;;;2.45;2.25;;;;;;;;;;1607000;30;21732;-66
2022/06/30 00:32:04;;;;;;;2.75;2.60;;;;;;;;;;1605388;30;21646;-67
2022/06/30 00:32:56;;;;;;;2.47;2.38;;;;;;;;;;1607101;30;21690;-66
2022/06/30 00:33:49;;;;;;;4.43;2.13;;;;;;;;;;1611365;30;21612;-67
2022/06/30 00:34:41;;;;;;;2.40;2.20;;;;;;;;;;1610130;30;21637;-66
2022/06/30 00:35:33;;;;;;;2.53;2.30;;;;;;;;;;1609740;30;21621;-66
2022/06/30 00:36:24;;;;;;;2.42;2.22;;;;;;;;;;1612778;30;22365;-67
2022/06/30 00:37:16;;;;;;;2.42;2.33;;;;;;;;;;1612077;30;21758;-66
2022/06/30 00:38:08;;;;;;;2.45;2.25;;;;;;;;;;1613187;30;22155;-67
2022/06/30 00:39:00;;;;;;;2.35;2.08;;;;;;;;;;1609427;30;21630;-67
2022/06/30 00:39:51;;;;;;;2.50;2.30;;;;;;;;;;1607570;30;21805;-66
2022/06/30 00:40:46;;;;;;;2.28;2.17;;;;;;;;;;1613083;30;21688;-66
2022/06/30 00:41:39;;;;;;;2.60;2.20;;;;;;;;;;1609122;30;21726;-66
2022/06/30 00:42:32;;;;;;;2.10;2.00;;;;;;;;;;1613309;30;21663;-66
2022/06/30 00:43:23;;;;;;;2.00;1.90;;;;;;;;;;1611402;30;22081;-66
2022/06/30 00:44:15;;;;;;;5.03;2.33;;;;;;;;;;1610947;30;23977;-66
2022/06/30 00:45:08;;;;;;;2.70;2.50;;;;;;;;;;1613400;30;22668;-66
2022/06/30 00:46:00;;;;;;;2.20;2.10;;;;;;;;;;1612322;30;21980;-67
2022/06/30 00:46:52;;;;;;;2.33;2.15;;;;;;;;;;1610024;30;21666;-66
2022/06/30 00:47:44;;;;;;;2.20;2.10;;;;;;;;;;1606228;30;22450;-67
2022/06/30 00:48:35;;;;;;;2.60;2.40;;;;;;;;;;1607031;30;21673;-66
2022/06/30 00:49:29;;;;;;;2.08;1.98;;;;;;;;;;1608427;30;21655;-66
2022/06/30 00:50:20;;;;;;;2.20;2.00;;;;;;;;;;1611442;30;21703;-66
2022/06/30 00:51:12;;;;;;;2.28;2.17;;;;;;;;;;1612704;30;22528;-66
2022/06/30 00:52:09;;;;;;;2.38;2.20;;;;;;;;;;1614637;30;22225;-66
2022/06/30 00:53:05;;;;;;;2.50;2.30;;;;;;;;;;1611537;30;21649;-67
2022/06/30 00:54:01;;;;;;;2.50;2.30;;;;;;;;;;1610276;30;21676;-67
2022/06/30 00:54:55;;;;;;;6.47;2.35;;;;;;;;;;1615552;30;22124;-67
2022/06/30 00:55:49;;;;;;;2.67;2.30;;;;;;;;;;1607757;30;22770;-67
2022/06/30 00:56:44;;;;;;;4.20;2.45;;;;;;;;;;1604406;30;21663;-67
2022/06/30 00:57:40;;;;;;;2.53;1.85;;;;;;;;;;1607604;30;22549;-67
2022/06/30 00:58:36;;;;;;;2.05;1.95;;;;;;;;;;1615992;30;21740;-66
2022/06/30 00:59:29;;;;;;;1.75;1.65;;;;;;;;;;1613248;30;21661;-66
2022/06/30 01:00:22;;;;;;;2.38;2.28;;;;;;;;;;1611477;30;21871;-66
2022/06/30 01:01:14;;;;;;;2.33;2.17;;;;;;;;;;1609068;30;21738;-67
2022/06/30 01:02:07;;;;;;;2.10;2.00;;;;;;;;;;1612575;30;21976;-66
2022/06/30 01:02:59;;;;;;;2.17;2.08;;;;;;;;;;1611856;30;23465;-66
2022/06/30 01:03:52;;;;;;;2.25;2.13;;;;;;;;;;1611713;30;21676;-66
2022/06/30 01:04:45;;;;;;;2.20;2.00;;;;;;;;;;1609949;30;21602;-67
2022/06/30 01:05:38;;;;;;;2.00;1.90;;;;;;;;;;1611729;30;22222;-66
2022/06/30 01:06:30;;;;;;;5.32;1.92;;;;;;;;;;1609383;30;22266;-66
2022/06/30 01:07:23;;;;;;;2.22;2.13;;;;;;;;;;1612153;30;22453;-67
2022/06/30 01:08:16;;;;;;;3.72;2.10;;;;;;;;;;1607636;30;22083;-67
2022/06/30 01:09:09;;;;;;;2.15;2.05;;;;;;;;;;1609300;30;22070;-67
2022/06/30 01:13:35;;;;;;;2.08;1.98;;;;;;;;;;1610770;30;22217;-67
2022/06/30 01:14:27;;;;;;;2.03;1.90;;;;;;;;;;1611127;30;22486;-66
2022/06/30 01:15:20;;;;;;;2.05;1.95;;;;;;;;;;1607116;30;22454;-66
2022/06/30 01:16:13;;;;;;;2.22;2.10;;;;;;;;;;1611283;30;21635;-66
2022/06/30 01:17:05;;;;;;;2.28;2.17;;;;;;;;;;1608721;30;21646;-67
2022/06/30 01:17:57;;;;;;;2.10;1.90;;;;;;;;;;1613678;30;21803;-66
2022/06/30 01:18:48;;;;;;;1.70;1.58;;;;;;;;;;1612666;30;21630;-67
2022/06/30 01:19:52;;;;;;;1.75;1.65;;;;;;;;;;1608958;30;21743;-66
2022/06/30 01:20:43;;;;;;;2.15;1.92;;;;;;;;;;1608070;30;22573;-67
2022/06/30 01:21:37;;;;;;;2.67;1.88;;;;;;;;;;1608304;30;21776;-67
2022/06/30 01:22:28;;;;;;;1.85;1.75;;;;;;;;;;1609004;30;22587;-66
2022/06/30 01:23:21;;;;;;;2.20;2.00;;;;;;;;;;1612804;30;22740;-66
2022/06/30 01:24:12;;;;;;;2.10;1.90;;;;;;;;;;1609176;30;22326;-67
2022/06/30 01:25:06;;;;;;;1.70;1.60;;;;;;;;;;1610169;30;21950;-66
2022/06/30 01:25:57;;;;;;;2.00;1.88;;;;;;;;;;1613345;30;21668;-65
2022/06/30 01:26:56;;;;;;;1.88;1.77;;;;;;;;;;1611729;30;21768;-66
2022/06/30 01:27:47;;;;;;;2.40;2.20;;;;;;;;;;1608195;30;21864;-65
2022/06/30 01:28:39;;;;;;;2.00;1.90;;;;;;;;;;1613239;30;22023;-66
2022/06/30 01:29:32;;;;;;;1.80;1.60;;;;;;;;;;1612818;30;21656;-66
2022/06/30 01:30:25;;;;;;;2.15;1.95;;;;;;;;;;1609301;30;22581;-66
2022/06/30 01:31:16;;;;;;;1.88;1.77;;;;;;;;;;1600311;30;21701;-66
2022/06/30 01:32:08;;;;;;;1.90;1.80;;;;;;;;;;1601474;30;21866;-67
2022/06/30 01:33:01;;;;;;;1.88;1.77;;;;;;;;;;1607184;30;22481;-66
2022/06/30 01:33:52;;;;;;;3.38;2.20;;;;;;;;;;1611184;30;21774;-67
2022/06/30 01:34:44;;;;;;;2.05;1.85;;;;;;;;;;1610071;30;21642;-66
2022/06/30 01:35:35;;;;;;;1.85;1.75;;;;;;;;;;1610965;30;21910;-67
2022/06/30 01:36:28;;;;;;;2.17;1.98;;;;;;;;;;1612495;30;21729;-67
2022/06/30 01:37:20;;;;;;;2.08;1.98;;;;;;;;;;1613196;30;21652;-67
2022/06/30 01:38:13;;;;;;;1.63;1.52;;;;;;;;;;1611878;30;21794;-67
2022/06/30 01:39:04;;;;;;;1.80;1.70;;;;;;;;;;1609379;30;21755;-66
2022/06/30 01:39:56;;;;;;;3.15;1.65;;;;;;;;;;1606484;30;21645;-66
2022/06/30 01:40:48;;;;;;;3.08;1.50;;;;;;;;;;1604975;30;22275;-66
2022/06/30 01:41:40;;;;;;;2.00;1.90;;;;;;;;;;1606686;30;21789;-66
2022/06/30 01:42:31;;;;;;;1.83;1.73;;;;;;;;;;1607478;30;21845;-67
2022/06/30 01:43:23;;;;;;;1.80;1.70;;;;;;;;;;1608029;30;22156;-66
2022/06/30 01:44:15;;;;;;;1.65;1.55;;;;;;;;;;1610028;30;22545;-66
2022/06/30 01:45:07;;;;;;;1.60;1.50;;;;;;;;;;1612890;30;22721;-66
2022/06/30 01:45:59;;;;;;;1.92;1.70;;;;;;;;;;1611926;30;21912;-66
2022/06/30 01:46:52;;;;;;;1.70;1.55;;;;;;;;;;1610852;30;22005;-66
2022/06/30 01:47:44;;;;;;;2.05;1.85;;;;;;;;;;1612691;30;22499;-66
2022/06/30 01:48:36;;;;;;;1.95;1.85;;;;;;;;;;1612261;30;22066;-66
2022/06/30 01:49:27;;;;;;;2.17;1.95;;;;;;;;;;1609133;30;22212;-66
2022/06/30 01:50:23;;;;;;;1.80;1.70;;;;;;;;;;1611521;30;21630;-67
2022/06/30 01:51:14;;;;;;;1.73;1.63;;;;;;;;;;1611952;30;22417;-67
2022/06/30 01:52:07;;;;;;;2.00;1.90;;;;;;;;;;1609536;30;22420;-67
2022/06/30 01:53:00;;;;;;;1.88;1.65;;;;;;;;;;1611886;30;22656;-66
2022/06/30 01:53:53;;;;;;;1.55;1.45;;;;;;;;;;1611055;30;21855;-67
2022/06/30 01:54:44;;;;;;;2.35;1.92;;;;;;;;;;1612219;30;22475;-66
2022/06/30 01:55:36;;;;;;;1.92;1.83;;;;;;;;;;1613364;30;21655;-67
2022/06/30 01:56:27;;;;;;;2.05;1.80;;;;;;;;;;1606651;30;21719;-67
2022/06/30 01:57:20;;;;;;;1.70;1.60;;;;;;;;;;1602670;30;22460;-66
2022/06/30 01:58:11;;;;;;;2.60;1.70;;;;;;;;;;1600610;30;21619;-66
2022/06/30 01:59:03;;;;;;;1.65;1.55;;;;;;;;;;1596591;30;21896;-67
2022/06/30 01:59:55;;;;;;;1.60;1.50;;;;;;;;;;1600724;30;21734;-67
2022/06/30 02:00:47;;;;;;;6.13;1.92;;;;;;;;;;1607642;30;21689;-67
2022/06/30 02:01:38;;;;;;;1.77;1.40;;;;;;;;;;1612227;30;21687;-67
2022/06/30 02:02:30;;;;;;;1.50;1.40;;;;;;;;;;1611200;30;21722;-67
2022/06/30 02:03:22;;;;;;;1.88;1.75;;;;;;;;;;1608596;30;21661;-67
2022/06/30 02:05:24;;;;;;;1.75;1.65;;;;;;;;;;1609191;30;21699;-67
2022/06/30 02:06:16;;;;;;;1.60;1.50;;;;;;;;;;1610676;30;21995;-65
2022/06/30 02:07:08;;;;;;;3.13;1.80;;;;;;;;;;1612399;30;22426;-67
2022/06/30 02:08:01;;;;;;;3.08;1.95;;;;;;;;;;1613079;30;21715;-67
2022/06/30 02:08:53;;;;;;;1.85;1.75;;;;;;;;;;1609466;30;21689;-66
2022/06/30 02:09:45;;;;;;;2.22;2.13;;;;;;;;;;1612021;30;22085;-67
2022/06/30 02:10:37;;;;;;;1.60;1.50;;;;;;;;;;1612301;30;21616;-67
2022/06/30 02:11:28;;;;;;;1.95;1.85;;;;;;;;;;1609514;30;22030;-67
2022/06/30 02:13:32;;;;;;;1.88;1.77;;;;;;;;;;1605776;30;21669;-66
2022/06/30 02:14:23;;;;;;;3.35;1.42;;;;;;;;;;1607999;30;22310;-67
2022/06/30 02:15:21;;;;;;;2.20;1.63;;;;;;;;;;1612547;30;22826;-66
2022/06/30 02:16:13;;;;;;;1.60;1.50;;;;;;;;;;1611408;30;21650;-67
2022/06/30 02:17:05;;;;;;;3.90;1.52;;;;;;;;;;1610243;30;21684;-67
2022/06/30 02:17:57;;;;;;;1.83;1.70;;;;;;;;;;1601026;30;22466;-68
2022/06/30 02:18:49;;;;;;;3.13;1.50;;;;;;;;;;1605075;30;21611;-67
2022/06/30 02:19:41;;;;;;;1.70;1.60;;;;;;;;;;1608362;30;22586;-67
2022/06/30 02:20:33;;;;;;;1.70;1.60;;;;;;;;;;1607553;30;21631;-67
2022/06/30 02:21:25;;;;;;;1.50;1.40;;;;;;;;;;1608128;30;21973;-66
2022/06/30 02:22:16;;;;;;;2.97;1.77;;;;;;;;;;1607011;30;21611;-65
2022/06/30 02:23:10;;;;;;;1.40;1.30;;;;;;;;;;1612905;30;21965;-67
2022/06/30 02:24:01;;;;;;;1.70;1.60;;;;;;;;;;1609360;30;21606;-67
2022/06/30 02:24:54;;;;;;;1.92;1.73;;;;;;;;;;1610055;30;22400;-67
2022/06/30 02:25:45;;;;;;;1.65;1.42;;;;;;;;;;1612490;30;21615;-67
2022/06/30 02:26:37;;;;;;;1.45;1.30;;;;;;;;;;1605596;30;21578;-66
2022/06/30 02:27:28;;;;;;;1.80;1.70;;;;;;;;;;1602711;30;21687;-68
2022/06/30 02:28:20;;;;;;;1.67;1.58;;;;;;;;;;1611058;30;22227;-67
2022/06/30 02:29:12;;;;;;;1.48;1.35;;;;;;;;;;1612120;30;22207;-65
2022/06/30 02:30:06;;;;;;;1.80;1.70;;;;;;;;;;1609293;30;21642;-68
2022/06/30 02:30:57;;;;;;;1.55;1.42;;;;;;;;;;1611492;30;23275;-65
2022/06/30 02:31:50;;;;;;;1.80;1.65;;;;;;;;;;1612423;30;21714;-65
2022/06/30 02:32:41;;;;;;;1.60;1.50;;;;;;;;;;1609852;30;21609;-66
2022/06/30 02:33:33;;;;;;;2.17;1.35;;;;;;;;;;1609320;30;21665;-66
2022/06/30 02:34:25;;;;;;;1.58;1.48;;;;;;;;;;1609101;30;21736;-67
2022/06/30 02:35:17;;;;;;;2.85;1.48;;;;;;;;;;1610340;30;22386;-67
2022/06/30 02:36:09;;;;;;;1.77;1.30;;;;;;;;;;1608376;30;21662;-66
2022/06/30 02:37:01;;;;;;;2.53;1.50;;;;;;;;;;1609215;30;22506;-67
2022/06/30 02:37:54;;;;;;;1.90;1.80;;;;;;;;;;1613580;30;21885;-66
2022/06/30 02:38:47;;;;;;;1.70;1.60;;;;;;;;;;1611712;30;21615;-67
2022/06/30 02:39:39;;;;;;;2.42;1.50;;;;;;;;;;1610840;30;21814;-65
2022/06/30 02:40:30;;;;;;;2.28;1.40;;;;;;;;;;1613032;30;22261;-67
2022/06/30 02:41:22;;;;;;;3.35;1.70;;;;;;;;;;1610333;30;22465;-66
2022/06/30 02:42:14;;;;;;;1.67;1.58;;;;;;;;;;1611493;30;22422;-67
2022/06/30 02:43:06;;;;;;;1.40;1.40;;;;;;;;;;1611874;30;21572;-66
2022/06/30 02:43:58;;;;;;;1.42;1.33;;;;;;;;;;1611271;30;21734;-67
2022/06/30 02:44:49;;;;;;;5.88;1.38;;;;;;;;;;1610351;30;21650;-67
2022/06/30 02:45:41;;;;;;;2.03;1.67;;;;;;;;;;1612255;30;21893;-66
2022/06/30 02:46:32;;;;;;;2.08;1.50;;;;;;;;;;1611038;30;21683;-67
2022/06/30 02:47:31;;;;;;;1.60;1.50;;;;;;;;;;1610783;30;22411;-68
2022/06/30 02:48:23;;;;;;;1.50;1.30;;;;;;;;;;1613128;30;21707;-67
2022/06/30 02:49:15;;;;;;;1.42;1.33;;;;;;;;;;1610457;30;22150;-67
2022/06/30 02:50:09;;;;;;;2.25;1.63;;;;;;;;;;1609479;30;21884;-66
2022/06/30 02:51:01;;;;;;;1.92;1.60;;;;;;;;;;1613289;30;21613;-66
2022/06/30 02:51:53;;;;;;;1.35;1.27;;;;;;;;;;1610806;30;22660;-66
2022/06/30 02:52:44;;;;;;;1.60;1.50;;;;;;;;;;1609517;30;22023;-66
2022/06/30 02:53:36;;;;;;;1.40;1.20;;;;;;;;;;1611632;30;22504;-67
2022/06/30 02:54:29;;;;;;;3.63;1.77;;;;;;;;;;1610179;30;21986;-66
2022/06/30 02:55:22;;;;;;;2.10;1.42;;;;;;;;;;1609565;30;21966;-66
2022/06/30 02:56:13;;;;;;;1.40;1.30;;;;;;;;;;1609632;30;21701;-67
2022/06/30 02:57:06;;;;;;;1.70;1.60;;;;;;;;;;1607091;30;22451;-66
2022/06/30 02:57:57;;;;;;;1.67;1.58;;;;;;;;;;1608646;30;21618;-66
2022/06/30 02:58:49;;;;;;;1.33;1.23;;;;;;;;;;1612137;30;22456;-66
2022/06/30 02:59:41;;;;;;;2.42;1.77;;;;;;;;;;1610960;30;21725;-66
2022/06/30 03:00:33;;;;;;;1.65;1.55;;;;;;;;;;1608863;30;21637;-68
2022/06/30 03:01:24;;;;;;;1.38;1.27;;;;;;;;;;1612919;30;22473;-67
2022/06/30 03:02:16;;;;;;;1.83;1.60;;;;;;;;;;1610584;30;21955;-67
2022/06/30 03:03:08;;;;;;;1.90;1.80;;;;;;;;;;1610374;30;21632;-66
2022/06/30 03:04:01;;;;;;;1.63;1.40;;;;;;;;;;1609985;30;22520;-66
2022/06/30 03:04:53;;;;;;;1.60;1.50;;;;;;;;;;1609640;30;21674;-66
2022/06/30 03:05:44;;;;;;;2.60;1.42;;;;;;;;;;1608143;30;21865;-66
2022/06/30 03:06:37;;;;;;;8.90;1.27;;;;;;;;;;1613258;30;21633;-66
2022/06/30 03:07:28;;;;;;;1.50;1.38;;;;;;;;;;1612330;30;22485;-67
2022/06/30 03:08:20;;;;;;;1.98;1.50;;;;;;;;;;1605364;30;22624;-67
2022/06/30 03:09:11;;;;;;;1.67;1.58;;;;;;;;;;1606244;30;21609;-65
2022/06/30 03:10:06;;;;;;;1.70;1.60;;;;;;;;;;1609948;30;22474;-67
2022/06/30 03:10:57;;;;;;;3.45;1.52;;;;;;;;;;1607335;30;21591;-67
2022/06/30 03:11:48;;;;;;;1.15;1.02;;;;;;;;;;1609049;30;22622;-66
2022/06/30 03:12:41;;;;;;;1.85;1.58;;;;;;;;;;1612947;30;22400;-66
2022/06/30 03:13:32;;;;;;;1.58;1.48;;;;;;;;;;1608187;30;21621;-66
2022/06/30 03:14:24;;;;;;;2.45;1.35;;;;;;;;;;1607573;30;21628;-66
2022/06/30 03:15:15;;;;;;;1.35;1.27;;;;;;;;;;1613987;30;21969;-67
2022/06/30 03:16:07;;;;;;;2.17;1.50;;;;;;;;;;1612492;30;22067;-67
2022/06/30 03:16:58;;;;;;;1.65;1.55;;;;;;;;;;1608618;30;21614;-67
2022/06/30 03:17:51;;;;;;;3.50;1.48;;;;;;;;;;1612936;30;21661;-67
2022/06/30 03:18:42;;;;;;;3.60;1.50;;;;;;;;;;1611209;30;22501;-67
2022/06/30 03:19:34;;;;;;;1.63;1.52;;;;;;;;;;1609791;30;22522;-66
2022/06/30 03:20:25;;;;;;;1.40;1.30;;;;;;;;;;1612103;30;22508;-65
2022/06/30 03:21:18;;;;;;;2.75;1.40;;;;;;;;;;1611699;30;22336;-66
2022/06/30 03:22:09;;;;;;;1.45;1.38;;;;;;;;;;1608831;30;21752;-65
2022/06/30 03:23:01;;;;;;;1.60;1.48;;;;;;;;;;1612734;30;22375;-65
2022/06/30 03:23:52;;;;;;;1.30;1.20;;;;;;;;;;1610756;30;21620;-66
2022/06/30 03:24:45;;;;;;;1.75;1.48;;;;;;;;;;1608763;30;21620;-66
2022/06/30 03:25:37;;;;;;;1.55;1.45;;;;;;;;;;1611983;30;21828;-67
2022/06/30 03:26:29;;;;;;;3.95;1.23;;;;;;;;;;1605226;30;21998;-67
2022/06/30 03:27:21;;;;;;;1.40;1.30;;;;;;;;;;1604026;30;21620;-67
2022/06/30 03:28:13;;;;;;;1.10;1.05;;;;;;;;;;1607902;30;21637;-68
2022/06/30 03:29:04;;;;;;;1.65;1.50;;;;;;;;;;1607603;30;21629;-67
2022/06/30 03:29:56;;;;;;;1.23;1.13;;;;;;;;;;1608112;30;21605;-67
2022/06/30 03:30:48;;;;;;;1.67;1.48;;;;;;;;;;1610170;30;21601;-67
2022/06/30 03:31:40;;;;;;;1.55;1.45;;;;;;;;;;1612066;30;22134;-66
2022/06/30 03:32:31;;;;;;;1.50;1.40;;;;;;;;;;1610930;30;21636;-67
2022/06/30 03:33:23;;;;;;;1.10;1.00;;;;;;;;;;1609129;30;22585;-67
2022/06/30 03:34:15;;;;;;;1.80;1.70;;;;;;;;;;1606658;30;21816;-66
2022/06/30 03:35:08;;;;;;;2.35;1.52;;;;;;;;;;1610698;30;21665;-66
2022/06/30 03:35:59;;;;;;;2.65;1.30;;;;;;;;;;1609582;30;22510;-67
2022/06/30 03:36:52;;;;;;;1.23;1.23;;;;;;;;;;1607674;30;22008;-66
2022/06/30 03:37:44;;;;;;;1.58;1.48;;;;;;;;;;1607580;30;22650;-67
2022/06/30 03:38:36;;;;;;;1.40;1.30;;;;;;;;;;1609177;30;21571;-66
2022/06/30 03:39:27;;;;;;;3.60;1.38;;;;;;;;;;1606515;30;21616;-67
2022/06/30 03:40:19;;;;;;;1.85;1.75;;;;;;;;;;1608024;30;21887;-66
2022/06/30 03:41:12;;;;;;;1.40;1.30;;;;;;;;;;1610769;30;21847;-66
2022/06/30 03:42:05;;;;;;;1.48;1.33;;;;;;;;;;1605573;30;21721;-66
2022/06/30 03:42:56;;;;;;;1.60;1.50;;;;;;;;;;1606396;30;21669;-66
2022/06/30 03:43:49;;;;;;;1.70;1.60;;;;;;;;;;1608720;30;21623;-66
2022/06/30 03:44:40;;;;;;;1.65;1.55;;;;;;;;;;1609189;30;22202;-66
2022/06/30 03:45:32;;;;;;;1.60;1.50;;;;;;;;;;1611731;30;22095;-66
2022/06/30 03:46:24;;;;;;;1.40;1.30;;;;;;;;;;1610079;30;21702;-66
2022/06/30 03:47:16;;;;;;;2.58;1.15;;;;;;;;;;1609044;30;21655;-66
2022/06/30 03:48:07;;;;;;;1.58;1.20;;;;;;;;;;1612055;30;21891;-66
2022/06/30 03:48:59;;;;;;;1.38;1.20;;;;;;;;;;1607505;30;21759;-67
2022/06/30 03:49:51;;;;;;;1.67;1.23;;;;;;;;;;1609142;30;22290;-67
2022/06/30 03:50:43;;;;;;;1.40;1.30;;;;;;;;;;1612564;30;22399;-66
2022/06/30 03:51:34;;;;;;;1.88;1.58;;;;;;;;;;1612983;30;21659;-66
2022/06/30 03:52:27;;;;;;;1.40;1.30;;;;;;;;;;1603313;30;21780;-65
2022/06/30 03:53:18;;;;;;;3.03;1.10;;;;;;;;;;1607883;30;21599;-67
2022/06/30 03:54:10;;;;;;;1.35;1.25;;;;;;;;;;1609407;30;21725;-66
2022/06/30 03:55:02;;;;;;;1.90;1.48;;;;;;;;;;1612292;30;22706;-66
2022/06/30 03:55:54;;;;;;;2.45;1.80;;;;;;;;;;1613767;30;21638;-65
2022/06/30 03:56:47;;;;;;;4.40;1.73;;;;;;;;;;1611789;30;21906;-66
2022/06/30 03:57:39;;;;;;;1.60;1.50;;;;;;;;;;1609819;30;22676;-67
2022/06/30 03:58:30;;;;;;;1.48;1.38;;;;;;;;;;1613571;30;21610;-66
2022/06/30 03:59:23;;;;;;;1.20;1.10;;;;;;;;;;1609841;30;22278;-67
2022/06/30 04:00:15;;;;;;;1.27;1.17;;;;;;;;;;1603655;30;21690;-66
2022/06/30 04:01:07;;;;;;;3.42;1.20;;;;;;;;;;1606176;30;22327;-68
2022/06/30 04:01:58;;;;;;;1.30;1.27;;;;;;;;;;1610681;30;22589;-66
2022/06/30 04:02:50;;;;;;;1.42;1.33;;;;;;;;;;1611983;30;22613;-66
2022/06/30 04:03:42;;;;;;;1.40;1.30;;;;;;;;;;1610776;30;22119;-66
2022/06/30 04:04:34;;;;;;;1.83;1.52;;;;;;;;;;1609938;30;21638;-66
2022/06/30 04:05:25;;;;;;;1.63;1.25;;;;;;;;;;1610327;30;21643;-66
2022/06/30 04:06:17;;;;;;;1.45;1.35;;;;;;;;;;1611267;30;21618;-66
2022/06/30 04:07:08;;;;;;;1.77;1.38;;;;;;;;;;1614452;30;22440;-65
2022/06/30 04:08:01;;;;;;;2.05;1.25;;;;;;;;;;1613436;30;21632;-65
2022/06/30 04:08:52;;;;;;;1.33;1.30;;;;;;;;;;1607767;30;21885;-67
2022/06/30 04:09:44;;;;;;;1.30;1.20;;;;;;;;;;1612981;30;21911;-67
2022/06/30 04:10:36;;;;;;;1.40;1.30;;;;;;;;;;1613028;30;21632;-66
2022/06/30 04:11:28;;;;;;;1.60;1.50;;;;;;;;;;1610172;30;21917;-66
2022/06/30 04:12:21;;;;;;;1.70;1.30;;;;;;;;;;1611486;30;22398;-66
2022/06/30 04:13:13;;;;;;;1.60;1.50;;;;;;;;;;1612900;30;22226;-66
2022/06/30 04:14:04;;;;;;;1.50;1.40;;;;;;;;;;1609589;30;21780;-66
2022/06/30 04:14:57;;;;;;;1.65;1.30;;;;;;;;;;1611559;30;22072;-66
2022/06/30 04:15:48;;;;;;;1.77;1.30;;;;;;;;;;1614367;30;21661;-66
2022/06/30 04:16:40;;;;;;;1.40;1.30;;;;;;;;;;1610834;30;21737;-66
2022/06/30 04:17:33;;;;;;;1.40;1.30;;;;;;;;;;1611216;30;22316;-65
2022/06/30 04:18:25;;;;;;;2.92;1.40;;;;;;;;;;1610361;30;21887;-66
2022/06/30 04:19:16;;;;;;;1.83;1.40;;;;;;;;;;1609687;30;21637;-65
2022/06/30 04:20:15;;;;;;;1.40;1.30;;;;;;;;;;1610986;30;21588;-66
2022/06/30 04:21:06;;;;;;;1.27;1.17;;;;;;;;;;1612468;30;22344;-67
2022/06/30 04:21:59;;;;;;;1.35;1.25;;;;;;;;;;1611204;30;22627;-67
2022/06/30 04:22:52;;;;;;;1.35;1.27;;;;;;;;;;1611025;30;21601;-67
2022/06/30 04:23:45;;;;;;;4.00;1.30;;;;;;;;;;1612001;30;22333;-67
2022/06/30 04:24:36;;;;;;;1.30;1.20;;;;;;;;;;1610017;30;21680;-67
2022/06/30 04:25:28;;;;;;;3.35;1.50;;;;;;;;;;1610746;30;21626;-67
2022/06/30 04:26:20;;;;;;;1.20;1.20;;;;;;;;;;1612367;30;21715;-66
2022/06/30 04:27:12;;;;;;;1.60;1.50;;;;;;;;;;1611811;30;22585;-66
2022/06/30 04:28:05;;;;;;;2.03;1.15;;;;;;;;;;1610636;30;21929;-67
2022/06/30 04:28:58;;;;;;;1.20;1.20;;;;;;;;;;1612898;30;22034;-67
2022/06/30 04:29:49;;;;;;;3.53;1.42;;;;;;;;;;1613101;30;21628;-66
2022/06/30 04:33:01;;;;;;;1.08;1.08;;;;;;;;;;1605072;30;21679;-67
2022/06/30 04:33:52;;;;;;;1.30;1.20;;;;;;;;;;1611443;30;21631;-67
2022/06/30 04:34:44;;;;;;;2.00;1.42;;;;;;;;;;1610109;30;22434;-67
2022/06/30 04:35:36;;;;;;;1.45;1.35;;;;;;;;;;1607775;30;22067;-67
2022/06/30 04:36:29;;;;;;;1.30;1.20;;;;;;;;;;1614207;30;21664;-66
2022/06/30 04:37:20;;;;;;;2.15;1.50;;;;;;;;;;1613473;30;22757;-67
2022/06/30 04:38:13;;;;;;;1.42;1.33;;;;;;;;;;1613026;30;22565;-66
2022/06/30 04:39:04;;;;;;;1.42;1.33;;;;;;;;;;1608863;30;21716;-65
2022/06/30 04:42:12;;;;;;;1.73;1.63;;;;;;;;;;1611273;30;22358;-66
2022/06/30 04:43:05;;;;;;;1.30;1.20;;;;;;;;;;1612931;30;21937;-67
2022/06/30 04:44:00;;;;;;;1.48;1.38;;;;;;;;;;1610574;30;22138;-67
2022/06/30 04:44:51;;;;;;;1.70;1.60;;;;;;;;;;1611076;30;22614;-67
2022/06/30 04:45:43;;;;;;;1.67;1.58;;;;;;;;;;1606290;30;21774;-66
2022/06/30 04:46:34;;;;;;;1.40;1.13;;;;;;;;;;1603590;30;21691;-66
2022/06/30 04:47:27;;;;;;;1.27;1.20;;;;;;;;;;1609434;30;23036;-66
2022/06/30 04:48:18;;;;;;;1.73;1.50;;;;;;;;;;1608157;30;22040;-67
2022/06/30 04:49:10;;;;;;;1.13;1.13;;;;;;;;;;1609997;30;22442;-67
2022/06/30 04:50:02;;;;;;;1.30;1.20;;;;;;;;;;1609915;30;21739;-66
2022/06/30 04:50:54;;;;;;;1.73;1.40;;;;;;;;;;1613813;30;22463;-66
2022/06/30 04:51:46;;;;;;;1.17;1.13;;;;;;;;;;1610631;30;22368;-66
2022/06/30 04:52:38;;;;;;;1.92;1.20;;;;;;;;;;1610279;30;22585;-67
2022/06/30 04:53:29;;;;;;;1.30;1.20;;;;;;;;;;1611900;30;21594;-67
2022/06/30 04:54:21;;;;;;;1.30;1.20;;;;;;;;;;1610339;30;22456;-67
2022/06/30 04:55:13;;;;;;;1.15;1.02;;;;;;;;;;1611037;30;21655;-67
2022/06/30 04:56:05;;;;;;;1.13;1.02;;;;;;;;;;1612944;30;21610;-66
2022/06/30 04:56:57;;;;;;;1.40;1.30;;;;;;;;;;1611589;30;21967;-67
2022/06/30 04:57:49;;;;;;;1.30;1.20;;;;;;;;;;1606949;30;22450;-66
2022/06/30 04:58:41;;;;;;;1.52;1.30;;;;;;;;;;1607853;30;21618;-66
2022/06/30 04:59:34;;;;;;;1.92;1.42;;;;;;;;;;1608760;30;21703;-66
2022/06/30 05:00:25;;;;;;;2.83;1.33;;;;;;;;;;1609824;30;22623;-66
2022/06/30 05:01:17;;;;;;;1.30;1.20;;;;;;;;;;1614176;30;21811;-67
2022/06/30 05:02:09;;;;;;;1.27;1.23;;;;;;;;;;1609215;30;22001;-67
2022/06/30 05:03:01;;;;;;;1.35;1.25;;;;;;;;;;1609218;30;21938;-67
2022/06/30 05:03:52;;;;;;;3.50;1.30;;;;;;;;;;1609937;30;22338;-67
2022/06/30 05:04:45;;;;;;;1.58;1.48;;;;;;;;;;1610732;30;22338;-67
2022/06/30 05:05:36;;;;;;;1.40;1.30;;;;;;;;;;1607807;30;21616;-65
2022/06/30 05:06:28;;;;;;;1.40;1.30;;;;;;;;;;1613338;30;22332;-66
2022/06/30 05:07:21;;;;;;;1.80;1.45;;;;;;;;;;1612196;30;21875;-67
2022/06/30 05:08:13;;;;;;;1.40;1.30;;;;;;;;;;1611650;30;21616;-66
2022/06/30 05:09:04;;;;;;;1.23;1.20;;;;;;;;;;1609488;30;22046;-66
2022/06/30 05:09:56;;;;;;;1.10;1.08;;;;;;;;;;1613788;30;21687;-67
2022/06/30 05:10:48;;;;;;;1.00;1.00;;;;;;;;;;1608488;30;21967;-66
2022/06/30 05:11:40;;;;;;;2.70;1.38;;;;;;;;;;1609610;30;22259;-66
2022/06/30 05:12:31;;;;;;;1.23;1.20;;;;;;;;;;1608462;30;21621;-66
2022/06/30 05:13:23;;;;;;;4.63;1.20;;;;;;;;;;1608142;30;21629;-67
2022/06/30 05:14:16;;;;;;;1.60;1.50;;;;;;;;;;1608588;30;22174;-66
2022/06/30 05:15:09;;;;;;;1.52;1.40;;;;;;;;;;1613092;30;22002;-66
2022/06/30 05:16:02;;;;;;;1.40;1.30;;;;;;;;;;1611986;30;22309;-66
2022/06/30 05:16:54;;;;;;;1.58;1.45;;;;;;;;;;1609209;30;22084;-67
2022/06/30 05:17:45;;;;;;;1.40;1.30;;;;;;;;;;1612839;30;22434;-66
2022/06/30 05:18:38;;;;;;;1.52;1.40;;;;;;;;;;1613768;30;21771;-66
2022/06/30 05:19:29;;;;;;;1.50;1.40;;;;;;;;;;1609675;30;21696;-67
2022/06/30 05:20:21;;;;;;;1.00;1.00;;;;;;;;;;1607599;30;22773;-66
2022/06/30 05:21:12;;;;;;;1.40;1.30;;;;;;;;;;1610089;30;22475;-66
2022/06/30 05:22:05;;;;;;;1.40;1.30;;;;;;;;;;1610205;30;21744;-66
2022/06/30 05:22:57;;;;;;;1.40;1.30;;;;;;;;;;1612813;30;21744;-66
2022/06/30 05:27:14;;;;;;;1.33;1.23;;;;;;;;;;1612322;30;21884;-67